Terminal Aerodrome Forecast
Issued by NWS

Home | Current Version | Previous Version | Graphics & Text | Print | Product List | Glossary On
Versions: 1 2 3 4 5 6 7 8 9 10 11 12 13 14 15 16 17 18 19 20 21 22 23 24 25 26 27 28 29 30 31 32
000
FTUS43 KLOT 220527
TAFMDW
TAF
KMDW 220527Z 2206/2306 24009KT P6SM FEW100
     FM220630 02012G18KT P6SM SCT080
     FM220900 03011KT P6SM FEW060
     FM221400 05007KT P6SM SKC
     FM222000 08010KT P6SM SKC
     FM230100 10006KT P6SM SKC=

USA.gov is the U.S. government's official web portal to all federal, state and local government web resources and services.